Terminal Aerodrome Forecast
Issued by NWS

Home | Current Version | Previous Version | Graphics & Text | Print | Product List | Glossary On
Versions: 1 2 3 4 5 6 7 8 9 10 11 12 13 14 15 16 17 18 19 20 21 22 23 24 25 26 27 28 29 30 31 32
219
FTUS43 KBIS 280223 AAB
TAFDIK
TAF AMD
KDIK 280223Z 2802/2824 05006KT P6SM VCTS SCT040CB BKN100
      TEMPO 2802/2803 4SM -TSRA BKN030CB
     FM280300 07006KT P6SM SCT060
     FM281000 09006KT 3SM BR OVC015
     FM281200 09007KT 1SM -SHRA BR VCTS OVC010CB
     FM281500 09008KT P6SM OVC030=

USA.gov is the U.S. government's official web portal to all federal, state and local government web resources and services.